sensor_id;sensor_type;location;lat;lon;timestamp;P1;durP1;ratioP1;P2;durP2;ratioP2
63959;SDS011;50136;51.374;0.096;2024-03-06T00:02:59;16.20;;;11.52;;
63959;SDS011;50136;51.374;0.096;2024-03-06T00:13:02;19.27;;;13.20;;
63959;SDS011;50136;51.374;0.096;2024-03-06T00:23:04;19.48;;;13.73;;
63959;SDS011;50136;51.374;0.096;2024-03-06T00:33:08;18.20;;;12.43;;
63959;SDS011;50136;51.374;0.096;2024-03-06T00:43:10;16.38;;;11.07;;
63959;SDS011;50136;51.374;0.096;2024-03-06T00:53:13;17.90;;;12.02;;
63959;SDS011;50136;51.374;0.096;2024-03-06T01:03:15;14.77;;;10.40;;
63959;SDS011;50136;51.374;0.096;2024-03-06T01:13:19;20.55;;;11.00;;
63959;SDS011;50136;51.374;0.096;2024-03-06T01:23:21;17.55;;;10.55;;
63959;SDS011;50136;51.374;0.096;2024-03-06T01:33:24;17.85;;;10.05;;
63959;SDS011;50136;51.374;0.096;2024-03-06T01:43:26;15.15;;;9.52;;
63959;SDS011;50136;51.374;0.096;2024-03-06T01:53:31;14.82;;;10.45;;
63959;SDS011;50136;51.374;0.096;2024-03-06T02:03:34;25.25;;;11.88;;
63959;SDS011;50136;51.374;0.096;2024-03-06T02:13:38;18.83;;;11.95;;
63959;SDS011;50136;51.374;0.096;2024-03-06T02:23:41;18.20;;;10.23;;
63959;SDS011;50136;51.374;0.096;2024-03-06T02:33:43;19.02;;;11.25;;
63959;SDS011;50136;51.374;0.096;2024-03-06T02:43:47;23.20;;;14.30;;
63959;SDS011;50136;51.374;0.096;2024-03-06T02:53:50;24.60;;;15.05;;
63959;SDS011;50136;51.374;0.096;2024-03-06T03:03:54;29.90;;;16.38;;
63959;SDS011;50136;51.374;0.096;2024-03-06T03:13:56;32.63;;;18.67;;
63959;SDS011;50136;51.374;0.096;2024-03-06T03:23:59;23.15;;;14.75;;
63959;SDS011;50136;51.374;0.096;2024-03-06T03:34:01;25.25;;;15.30;;
63959;SDS011;50136;51.374;0.096;2024-03-06T03:44:04;27.90;;;16.80;;
63959;SDS011;50136;51.374;0.096;2024-03-06T03:54:06;26.98;;;16.25;;
63959;SDS011;50136;51.374;0.096;2024-03-06T04:04:10;25.15;;;15.77;;
63959;SDS011;50136;51.374;0.096;2024-03-06T04:14:12;32.55;;;17.10;;
63959;SDS011;50136;51.374;0.096;2024-03-06T04:24:15;26.88;;;18.13;;
63959;SDS011;50136;51.374;0.096;2024-03-06T04:34:17;30.73;;;20.38;;
63959;SDS011;50136;51.374;0.096;2024-03-06T04:44:21;36.35;;;21.50;;
63959;SDS011;50136;51.374;0.096;2024-03-06T04:54:23;36.45;;;21.52;;
63959;SDS011;50136;51.374;0.096;2024-03-06T05:04:26;32.60;;;20.23;;
63959;SDS011;50136;51.374;0.096;2024-03-06T05:25:06;31.15;;;18.00;;
63959;SDS011;50136;51.374;0.096;2024-03-06T05:35:26;36.60;;;20.42;;
63959;SDS011;50136;51.374;0.096;2024-03-06T05:45:46;38.33;;;21.50;;
63959;SDS011;50136;51.374;0.096;2024-03-06T06:06:26;37.00;;;21.52;;
63959;SDS011;50136;51.374;0.096;2024-03-06T06:16:34;39.33;;;21.38;;
63959;SDS011;50136;51.374;0.096;2024-03-06T06:26:38;42.35;;;23.17;;
63959;SDS011;50136;51.374;0.096;2024-03-06T06:36:44;43.35;;;25.33;;
63959;SDS011;50136;51.374;0.096;2024-03-06T06:46:48;41.88;;;23.75;;
63959;SDS011;50136;51.374;0.096;2024-03-06T06:56:50;50.13;;;25.42;;
63959;SDS011;50136;51.374;0.096;2024-03-06T07:06:53;54.47;;;28.15;;
63959;SDS011;50136;51.374;0.096;2024-03-06T07:16:55;47.78;;;26.95;;
63959;SDS011;50136;51.374;0.096;2024-03-06T07:26:59;47.72;;;25.80;;
63959;SDS011;50136;51.374;0.096;2024-03-06T07:37:00;57.33;;;31.75;;
63959;SDS011;50136;51.374;0.096;2024-03-06T07:47:07;54.20;;;28.33;;
63959;SDS011;50136;51.374;0.096;2024-03-06T07:57:09;56.10;;;33.30;;
63959;SDS011;50136;51.374;0.096;2024-03-06T08:07:13;60.63;;;33.25;;
63959;SDS011;50136;51.374;0.096;2024-03-06T08:17:15;67.63;;;38.08;;
63959;SDS011;50136;51.374;0.096;2024-03-06T08:27:18;72.25;;;38.05;;
63959;SDS011;50136;51.374;0.096;2024-03-06T08:37:20;70.97;;;36.22;;
63959;SDS011;50136;51.374;0.096;2024-03-06T08:47:24;65.20;;;33.42;;
63959;SDS011;50136;51.374;0.096;2024-03-06T08:57:26;77.80;;;35.25;;
63959;SDS011;50136;51.374;0.096;2024-03-06T09:07:29;52.85;;;26.48;;
63959;SDS011;50136;51.374;0.096;2024-03-06T09:17:33;49.42;;;26.27;;
63959;SDS011;50136;51.374;0.096;2024-03-06T09:27:37;50.17;;;27.85;;
63959;SDS011;50136;51.374;0.096;2024-03-06T09:37:39;52.88;;;27.30;;
63959;SDS011;50136;51.374;0.096;2024-03-06T09:47:42;51.58;;;28.60;;
63959;SDS011;50136;51.374;0.096;2024-03-06T09:57:44;51.58;;;27.45;;
63959;SDS011;50136;51.374;0.096;2024-03-06T10:07:48;53.65;;;27.95;;
63959;SDS011;50136;51.374;0.096;2024-03-06T10:17:51;48.05;;;28.42;;
63959;SDS011;50136;51.374;0.096;2024-03-06T10:28:05;40.53;;;24.63;;
63959;SDS011;50136;51.374;0.096;2024-03-06T10:38:09;43.72;;;25.63;;
63959;SDS011;50136;51.374;0.096;2024-03-06T10:48:13;44.72;;;25.50;;
63959;SDS011;50136;51.374;0.096;2024-03-06T10:58:16;43.70;;;26.27;;
63959;SDS011;50136;51.374;0.096;2024-03-06T11:08:21;37.90;;;24.75;;
63959;SDS011;50136;51.374;0.096;2024-03-06T11:18:42;35.50;;;21.95;;
63959;SDS011;50136;51.374;0.096;2024-03-06T11:28:46;36.30;;;22.05;;
63959;SDS011;50136;51.374;0.096;2024-03-06T11:38:51;31.13;;;18.70;;
63959;SDS011;50136;51.374;0.096;2024-03-06T11:48:55;35.85;;;21.77;;
63959;SDS011;50136;51.374;0.096;2024-03-06T11:58:58;33.03;;;20.88;;
63959;SDS011;50136;51.374;0.096;2024-03-06T12:09:02;44.60;;;20.38;;
63959;SDS011;50136;51.374;0.096;2024-03-06T12:19:04;35.25;;;18.95;;
63959;SDS011;50136;51.374;0.096;2024-03-06T12:29:09;30.17;;;17.52;;
63959;SDS011;50136;51.374;0.096;2024-03-06T12:39:14;29.95;;;19.83;;
63959;SDS011;50136;51.374;0.096;2024-03-06T12:49:24;21.13;;;13.23;;
63959;SDS011;50136;51.374;0.096;2024-03-06T12:59:26;16.77;;;11.50;;
63959;SDS011;50136;51.374;0.096;2024-03-06T13:09:29;25.70;;;12.13;;
63959;SDS011;50136;51.374;0.096;2024-03-06T13:19:31;23.27;;;13.73;;
63959;SDS011;50136;51.374;0.096;2024-03-06T13:29:34;45.72;;;20.98;;
63959;SDS011;50136;51.374;0.096;2024-03-06T13:39:36;30.40;;;19.83;;
63959;SDS011;50136;51.374;0.096;2024-03-06T13:49:40;31.38;;;18.27;;
63959;SDS011;50136;51.374;0.096;2024-03-06T13:59:43;34.55;;;19.33;;
63959;SDS011;50136;51.374;0.096;2024-03-06T14:09:46;24.30;;;14.10;;
63959;SDS011;50136;51.374;0.096;2024-03-06T14:19:48;12.88;;;8.52;;
63959;SDS011;50136;51.374;0.096;2024-03-06T14:29:52;15.32;;;9.48;;
63959;SDS011;50136;51.374;0.096;2024-03-06T14:39:54;15.40;;;9.20;;
63959;SDS011;50136;51.374;0.096;2024-03-06T14:49:57;14.23;;;9.23;;
63959;SDS011;50136;51.374;0.096;2024-03-06T14:59:59;13.52;;;9.60;;
63959;SDS011;50136;51.374;0.096;2024-03-06T15:10:04;17.90;;;10.18;;
63959;SDS011;50136;51.374;0.096;2024-03-06T15:20:06;15.50;;;9.85;;
63959;SDS011;50136;51.374;0.096;2024-03-06T15:30:11;15.35;;;10.52;;
63959;SDS011;50136;51.374;0.096;2024-03-06T15:40:13;14.05;;;9.88;;
63959;SDS011;50136;51.374;0.096;2024-03-06T15:50:16;13.75;;;8.95;;
63959;SDS011;50136;51.374;0.096;2024-03-06T16:00:19;19.02;;;10.25;;
63959;SDS011;50136;51.374;0.096;2024-03-06T16:10:22;17.35;;;11.73;;
63959;SDS011;50136;51.374;0.096;2024-03-06T16:20:24;10.85;;;4.85;;
63959;SDS011;50136;51.374;0.096;2024-03-06T16:41:07;9.23;;;6.13;;
63959;SDS011;50136;51.374;0.096;2024-03-06T16:51:16;14.00;;;9.90;;
63959;SDS011;50136;51.374;0.096;2024-03-06T17:01:19;12.02;;;7.35;;
63959;SDS011;50136;51.374;0.096;2024-03-06T17:11:22;10.10;;;6.57;;
63959;SDS011;50136;51.374;0.096;2024-03-06T17:21:24;8.63;;;6.00;;
63959;SDS011;50136;51.374;0.096;2024-03-06T17:31:28;7.18;;;4.93;;
63959;SDS011;50136;51.374;0.096;2024-03-06T17:41:30;6.45;;;4.93;;
63959;SDS011;50136;51.374;0.096;2024-03-06T17:51:33;7.93;;;4.05;;
63959;SDS011;50136;51.374;0.096;2024-03-06T18:01:35;8.95;;;4.18;;
63959;SDS011;50136;51.374;0.096;2024-03-06T18:11:39;11.32;;;5.68;;
63959;SDS011;50136;51.374;0.096;2024-03-06T18:21:42;13.45;;;6.55;;
63959;SDS011;50136;51.374;0.096;2024-03-06T18:31:49;7.82;;;4.22;;
63959;SDS011;50136;51.374;0.096;2024-03-06T18:41:52;11.88;;;4.65;;
63959;SDS011;50136;51.374;0.096;2024-03-06T18:51:55;7.20;;;3.92;;
63959;SDS011;50136;51.374;0.096;2024-03-06T19:01:57;6.13;;;3.70;;
63959;SDS011;50136;51.374;0.096;2024-03-06T19:12:01;16.13;;;6.28;;
63959;SDS011;50136;51.374;0.096;2024-03-06T19:22:03;9.65;;;4.53;;
63959;SDS011;50136;51.374;0.096;2024-03-06T19:32:07;8.32;;;5.32;;
63959;SDS011;50136;51.374;0.096;2024-03-06T19:42:09;12.68;;;5.80;;
63959;SDS011;50136;51.374;0.096;2024-03-06T19:52:12;14.90;;;7.10;;
63959;SDS011;50136;51.374;0.096;2024-03-06T20:02:15;18.17;;;7.72;;
63959;SDS011;50136;51.374;0.096;2024-03-06T20:12:18;20.58;;;10.73;;
63959;SDS011;50136;51.374;0.096;2024-03-06T20:22:20;21.85;;;10.70;;
63959;SDS011;50136;51.374;0.096;2024-03-06T20:43:04;17.03;;;10.00;;
63959;SDS011;50136;51.374;0.096;2024-03-06T20:53:06;19.83;;;9.52;;
63959;SDS011;50136;51.374;0.096;2024-03-06T21:03:27;21.67;;;10.52;;
63959;SDS011;50136;51.374;0.096;2024-03-06T21:14:04;15.88;;;9.63;;
63959;SDS011;50136;51.374;0.096;2024-03-06T21:45:51;16.88;;;10.35;;
63959;SDS011;50136;51.374;0.096;2024-03-06T21:55:56;19.33;;;9.82;;
63959;SDS011;50136;51.374;0.096;2024-03-06T22:17:39;15.73;;;9.18;;
63959;SDS011;50136;51.374;0.096;2024-03-06T22:38:06;17.97;;;9.70;;
63959;SDS011;50136;51.374;0.096;2024-03-06T22:48:24;12.70;;;6.88;;
63959;SDS011;50136;51.374;0.096;2024-03-06T22:58:59;11.32;;;7.43;;
63959;SDS011;50136;51.374;0.096;2024-03-06T23:09:30;11.05;;;6.63;;
63959;SDS011;50136;51.374;0.096;2024-03-06T23:19:32;11.90;;;6.15;;
63959;SDS011;50136;51.374;0.096;2024-03-06T23:29:35;19.85;;;9.05;;
63959;SDS011;50136;51.374;0.096;2024-03-06T23:39:38;12.38;;;8.30;;
63959;SDS011;50136;51.374;0.096;2024-03-06T23:49:41;14.98;;;8.60;;
63959;SDS011;50136;51.374;0.096;2024-03-06T23:59:43;26.63;;;13.75;;
